Hartley, South Dakota
Current Conditions -  °F | °C
As of 3:55 PM on Tuesday 21 Oct 2014 (Local Time) from KPHP Reporting Station
Clear Clear  
Wind Chill: 83°   Ceiling: Unl
Heat Index: 83°   Visibility: 10mi
Dew Point: 46°   Wind: 15mph
Humidity: 27%   Direction: 190°S
Pressure: 29.72"   Gusts: NA
Location:  44.4194°N, 101.806°W
Report Text: KPHP 212155Z AUTO 19013KT 10SM CLR 28/08 A2972 RMK AO2 SLP048 T02830078
Loading
Personal Weather Stations






























Interactive Weather Map
Tropical Storm Tracking
New forecast layout! Learn more

10-Day Weather Forecast

Advertisements
Track Severe Weather on mobile